createdAt,value
2023-04-15T00:00:10.365Z,8.07
2023-04-15T00:03:17.070Z,7.97
2023-04-15T00:06:20.750Z,7.84
2023-04-15T00:09:24.296Z,8.02
2023-04-15T00:12:27.979Z,7.66
2023-04-15T00:15:30.643Z,7.20
2023-04-15T00:18:33.244Z,7.39
2023-04-15T00:21:36.564Z,7.15
2023-04-15T00:24:39.796Z,6.89
2023-04-15T00:27:42.461Z,7.13
2023-04-15T00:30:45.932Z,7.56
2023-04-15T00:33:48.857Z,7.59
2023-04-15T00:36:52.614Z,7.65
2023-04-15T00:39:56.567Z,7.71
2023-04-15T00:43:00.128Z,7.79
2023-04-15T00:46:05.211Z,7.65
2023-04-15T00:49:08.938Z,7.67
2023-04-15T00:52:11.963Z,7.80
2023-04-15T00:55:16.420Z,7.64
2023-04-15T00:58:19.462Z,7.62
2023-04-15T01:01:22.751Z,7.74
2023-04-15T01:04:26.704Z,7.71
2023-04-15T01:07:30.889Z,7.67
2023-04-15T01:10:33.710Z,7.36
2023-04-15T01:13:36.916Z,7.27
2023-04-15T01:16:39.973Z,7.09
2023-04-15T01:19:43.388Z,7.24
2023-04-15T01:22:47.078Z,7.59
2023-04-15T01:25:51.482Z,7.62
2023-04-15T01:28:54.925Z,7.32
2023-04-15T01:31:57.786Z,7.39
2023-04-15T01:35:02.291Z,7.49
2023-04-15T01:38:09.845Z,7.60
2023-04-15T01:41:16.530Z,7.72
2023-04-15T01:44:20.323Z,7.83
2023-04-15T01:47:23.314Z,7.78
2023-04-15T01:50:27.145Z,7.84
2023-04-15T01:53:31.299Z,7.83
2023-04-15T01:56:33.858Z,7.98
2023-04-15T01:59:37.228Z,7.95
2023-04-15T02:02:40.385Z,7.79
2023-04-15T02:05:43.732Z,7.83
2023-04-15T02:08:47.527Z,7.84
2023-04-15T02:11:51.776Z,7.95
2023-04-15T02:14:54.452Z,7.94
2023-04-15T02:18:00.954Z,7.90
2023-04-15T02:21:06.046Z,7.88
2023-04-15T02:24:09.102Z,7.61
2023-04-15T02:27:15.598Z,7.89
2023-04-15T02:30:18.792Z,7.96
2023-04-15T02:33:21.871Z,7.97
2023-04-15T02:36:24.678Z,7.84
2023-04-15T02:39:27.496Z,7.90
2023-04-15T02:42:31.999Z,8.01
2023-04-15T02:45:37.791Z,8.18
2023-04-15T02:48:41.903Z,8.26
2023-04-15T02:51:49.499Z,8.27
2023-04-15T02:54:52.118Z,8.30
2023-04-15T02:57:54.646Z,8.35
2023-04-15T03:00:57.694Z,8.38
2023-04-15T03:04:00.581Z,8.37
2023-04-15T03:07:03.357Z,8.27
2023-04-15T03:10:07.380Z,8.42
2023-04-15T03:13:10.322Z,8.40
2023-04-15T03:16:14.673Z,8.47
2023-04-15T03:19:18.412Z,8.45
2023-04-15T03:22:21.376Z,8.44
2023-04-15T03:25:24.325Z,8.38
2023-04-15T03:28:28.670Z,8.35
2023-04-15T03:31:32.573Z,8.32
2023-04-15T03:34:36.196Z,8.06
2023-04-15T03:37:38.973Z,8.39
2023-04-15T03:40:42.258Z,8.37
2023-04-15T03:43:45.507Z,8.42
2023-04-15T03:46:48.533Z,8.07
2023-04-15T03:49:52.209Z,8.19
2023-04-15T03:52:54.904Z,8.44
2023-04-15T03:55:57.461Z,8.58
2023-04-15T03:59:01.452Z,8.63
2023-04-15T04:02:04.720Z,8.56
2023-04-15T04:05:08.235Z,8.54
2023-04-15T04:08:13.887Z,8.50
2023-04-15T04:11:16.504Z,8.55
2023-04-15T04:14:19.589Z,8.47
2023-04-15T04:17:22.280Z,8.28
2023-04-15T04:20:25.136Z,8.17
2023-04-15T04:23:28.658Z,8.20
2023-04-15T04:26:31.305Z,8.22
2023-04-15T04:29:38.549Z,8.20
2023-04-15T04:32:41.141Z,8.23
2023-04-15T04:35:43.761Z,8.34
2023-04-15T04:38:46.664Z,8.65
2023-04-15T04:41:52.267Z,8.85
2023-04-15T04:44:54.953Z,8.81
2023-04-15T04:47:58.238Z,8.95
2023-04-15T04:51:01.073Z,8.65
2023-04-15T04:54:04.369Z,8.64
2023-04-15T04:57:08.122Z,8.70
2023-04-15T05:00:11.224Z,8.63
2023-04-15T05:03:14.526Z,8.84
2023-04-15T05:06:17.168Z,9.51
2023-04-15T05:09:20.178Z,9.77
2023-04-15T05:12:22.764Z,9.67
2023-04-15T05:15:25.477Z,9.70
2023-04-15T05:18:28.733Z,9.46
2023-04-15T05:21:31.853Z,9.51
2023-04-15T05:24:34.656Z,9.51
2023-04-15T05:27:37.303Z,9.94
2023-04-15T05:30:40.805Z,9.78
2023-04-15T05:33:44.383Z,9.48
2023-04-15T05:36:47.752Z,9.76
2023-04-15T05:39:50.405Z,9.50
2023-04-15T05:42:53.065Z,9.41
2023-04-15T05:45:57.013Z,9.30
2023-04-15T05:49:00.068Z,9.30
2023-04-15T05:52:04.145Z,8.97
2023-04-15T05:55:07.447Z,9.06
2023-04-15T05:58:09.951Z,9.13
2023-04-15T06:01:12.530Z,9.27
2023-04-15T06:04:15.552Z,9.03
2023-04-15T06:07:18.796Z,9.46
2023-04-15T06:10:21.562Z,9.63
2023-04-15T06:13:24.147Z,9.69
2023-04-15T06:16:27.403Z,9.73
2023-04-15T06:19:30.390Z,9.30
2023-04-15T06:22:33.222Z,9.34
2023-04-15T06:25:35.869Z,9.50
2023-04-15T06:28:38.534Z,9.68
2023-04-15T06:31:50.281Z,9.62
2023-04-15T06:34:52.886Z,9.42
2023-04-15T06:37:55.408Z,9.55
2023-04-15T06:40:58.982Z,9.75
2023-04-15T06:44:02.664Z,9.76
2023-04-15T06:47:05.410Z,9.68
2023-04-15T06:50:09.383Z,9.69
2023-04-15T06:53:12.402Z,9.94
2023-04-15T06:56:15.838Z,9.70
2023-04-15T06:59:19.029Z,9.98
2023-04-15T07:02:22.114Z,9.94
2023-04-15T07:05:25.475Z,9.91
2023-04-15T07:08:28.073Z,10.06
2023-04-15T07:11:31.423Z,10.10
2023-04-15T07:14:33.934Z,10.18
2023-04-15T07:17:37.186Z,10.12
2023-04-15T07:20:40.259Z,9.90
2023-04-15T07:23:44.089Z,9.90
2023-04-15T07:26:47.304Z,10.19
2023-04-15T07:29:52.080Z,10.35
2023-04-15T07:32:55.344Z,10.68
2023-04-15T07:35:58.221Z,10.93
2023-04-15T07:39:03.684Z,11.03
2023-04-15T07:42:07.453Z,11.08
2023-04-15T07:45:11.475Z,11.18
2023-04-15T07:48:14.074Z,11.71
2023-04-15T07:51:17.829Z,11.53
2023-04-15T07:54:21.574Z,11.81
2023-04-15T07:57:24.339Z,11.71
2023-04-15T08:00:27.077Z,11.84
2023-04-15T08:03:30.016Z,11.68
2023-04-15T08:06:33.274Z,12.10
2023-04-15T08:09:36.030Z,11.93
2023-04-15T08:12:38.672Z,12.68
2023-04-15T08:15:41.376Z,12.75
2023-04-15T08:18:44.392Z,12.45
2023-04-15T08:21:47.931Z,12.24
2023-04-15T08:24:50.579Z,11.92
2023-04-15T08:27:57.173Z,12.47
2023-04-15T08:31:00.006Z,12.73
2023-04-15T08:34:03.702Z,12.76
2023-04-15T08:37:07.101Z,13.27
2023-04-15T08:40:10.879Z,12.83
2023-04-15T08:43:20.974Z,12.91
2023-04-15T08:46:24.267Z,12.58
2023-04-15T08:49:29.118Z,13.13
2023-04-15T08:52:32.316Z,13.27
2023-04-15T08:55:36.855Z,12.73
2023-04-15T08:58:40.704Z,13.04
2023-04-15T09:01:44.174Z,12.71
2023-04-15T09:04:47.552Z,12.95
2023-04-15T09:07:53.461Z,13.14
2023-04-15T09:10:56.305Z,13.27
2023-04-15T09:13:58.905Z,13.94
2023-04-15T09:17:03.998Z,13.15
2023-04-15T09:20:11.547Z,12.96
2023-04-15T09:23:15.906Z,13.04
2023-04-15T09:26:19.591Z,12.74
2023-04-15T09:29:25.912Z,12.95
2023-04-15T09:32:28.633Z,13.06
2023-04-15T09:35:31.642Z,13.62
2023-04-15T09:38:34.297Z,13.13
2023-04-15T09:41:36.919Z,13.48
2023-04-15T09:44:39.647Z,13.45
2023-04-15T09:47:42.555Z,13.36
2023-04-15T09:50:45.306Z,13.45
2023-04-15T09:53:54.746Z,13.14
2023-04-15T09:57:08.687Z,13.38
2023-04-15T10:00:11.731Z,14.29
2023-04-15T10:03:21.631Z,14.21
2023-04-15T10:06:28.071Z,14.01
2023-04-15T10:09:31.859Z,14.09
2023-04-15T10:12:37.515Z,13.69
2023-04-15T10:15:44.774Z,13.58
2023-04-15T10:18:56.114Z,13.19
2023-04-15T10:21:59.688Z,13.48
2023-04-15T10:25:04.284Z,13.57
2023-04-15T10:28:09.046Z,13.32
2023-04-15T10:31:13.823Z,13.39
2023-04-15T10:34:17.603Z,13.93
2023-04-15T10:37:35.738Z,14.74
2023-04-15T10:40:39.568Z,14.42
2023-04-15T10:44:08.420Z,13.84
2023-04-15T10:47:21.737Z,13.63
2023-04-15T10:50:28.867Z,13.74
2023-04-15T10:53:32.117Z,14.49
2023-04-15T10:56:34.658Z,14.31
2023-04-15T10:59:39.351Z,13.92
2023-04-15T11:02:44.917Z,13.83
2023-04-15T11:05:54.297Z,14.21
2023-04-15T11:08:59.592Z,14.11
2023-04-15T11:12:08.386Z,13.70
2023-04-15T11:15:32.586Z,13.44
2023-04-15T11:18:35.321Z,13.75
2023-04-15T11:21:38.276Z,13.39
2023-04-15T11:24:50.590Z,13.49
2023-04-15T11:27:57.605Z,13.34
2023-04-15T11:31:07.424Z,13.79
2023-04-15T11:34:10.296Z,14.11
2023-04-15T11:37:13.084Z,14.82
2023-04-15T11:40:17.645Z,14.17
2023-04-15T11:43:22.821Z,14.65
2023-04-15T11:46:32.012Z,14.29
2023-04-15T11:49:38.420Z,13.69
2023-04-15T11:52:41.542Z,13.53
2023-04-15T11:55:46.382Z,13.37
2023-04-15T11:58:54.147Z,13.67
2023-04-15T12:01:57.354Z,13.84
2023-04-15T12:05:08.560Z,13.74
2023-04-15T12:08:12.288Z,14.52
2023-04-15T12:11:16.533Z,14.58
2023-04-15T12:14:29.908Z,14.37
2023-04-15T12:17:50.870Z,14.29
2023-04-15T12:20:54.738Z,14.10
2023-04-15T12:23:58.080Z,14.33
2023-04-15T12:27:08.536Z,14.61
2023-04-15T12:30:11.796Z,14.97
2023-04-15T12:33:15.396Z,14.33
2023-04-15T12:36:18.697Z,13.68
2023-04-15T12:39:25.391Z,13.69
2023-04-15T12:42:28.234Z,13.89
2023-04-15T12:45:31.749Z,13.84
2023-04-15T12:48:34.761Z,13.81
2023-04-15T12:51:37.715Z,13.79
2023-04-15T12:54:40.586Z,14.13
2023-04-15T12:57:43.746Z,14.57
2023-04-15T13:00:47.080Z,14.48
2023-04-15T13:03:51.255Z,13.86
2023-04-15T13:06:54.570Z,13.45
2023-04-15T13:09:57.775Z,13.76
2023-04-15T13:13:00.414Z,14.45
2023-04-15T13:16:03.231Z,13.43
2023-04-15T13:19:06.535Z,13.70
2023-04-15T13:22:09.348Z,13.33
2023-04-15T13:25:12.482Z,13.36
2023-04-15T13:28:15.189Z,13.62
2023-04-15T13:31:17.854Z,14.00
2023-04-15T13:34:20.803Z,14.34
2023-04-15T13:37:30.281Z,13.34
2023-04-15T13:40:32.961Z,13.59
2023-04-15T13:43:35.775Z,13.29
2023-04-15T13:46:39.614Z,13.24
2023-04-15T13:49:42.303Z,13.50
2023-04-15T13:52:45.786Z,13.71
2023-04-15T13:55:48.425Z,13.48
2023-04-15T13:58:53.020Z,13.35
2023-04-15T14:01:56.179Z,13.09
2023-04-15T14:04:58.963Z,13.04
2023-04-15T14:08:01.641Z,12.79
2023-04-15T14:11:04.267Z,12.99
2023-04-15T14:14:06.973Z,13.13
2023-04-15T14:17:09.606Z,12.99
2023-04-15T14:20:13.201Z,12.95
2023-04-15T14:23:16.741Z,13.39
2023-04-15T14:26:19.556Z,13.91
2023-04-15T14:29:22.337Z,13.56
2023-04-15T14:32:26.415Z,13.54
2023-04-15T14:35:30.006Z,13.61
2023-04-15T14:38:38.486Z,13.85
2023-04-15T14:41:41.436Z,13.46
2023-04-15T14:44:44.857Z,13.43
2023-04-15T14:47:47.776Z,13.36
2023-04-15T14:50:50.700Z,12.83
2023-04-15T14:53:53.731Z,13.32
2023-04-15T14:56:56.437Z,13.26
2023-04-15T14:59:59.275Z,13.22
2023-04-15T15:03:04.070Z,13.02
2023-04-15T15:06:06.956Z,12.91
2023-04-15T15:09:09.772Z,12.72
2023-04-15T15:12:12.386Z,12.90
2023-04-15T15:15:28.256Z,12.62
2023-04-15T15:18:31.985Z,12.91
2023-04-15T15:21:35.095Z,13.10
2023-04-15T15:24:37.692Z,12.91
2023-04-15T15:27:40.485Z,12.81
2023-04-15T15:30:43.108Z,12.86
2023-04-15T15:33:45.874Z,12.87
2023-04-15T15:36:48.692Z,12.75
2023-04-15T15:39:53.489Z,12.78
2023-04-15T15:42:56.166Z,13.20
2023-04-15T15:45:58.897Z,12.73
2023-04-15T15:49:04.106Z,12.64
2023-04-15T15:52:07.699Z,12.47
2023-04-15T15:55:10.435Z,12.38
2023-04-15T15:58:13.148Z,12.40
2023-04-15T16:01:16.185Z,12.44
2023-04-15T16:04:19.464Z,12.26
2023-04-15T16:07:22.172Z,12.56
2023-04-15T16:10:24.936Z,12.25
2023-04-15T16:13:27.953Z,12.09
2023-04-15T16:16:31.088Z,12.47
2023-04-15T16:19:33.785Z,12.17
2023-04-15T16:22:36.550Z,12.27
2023-04-15T16:25:39.166Z,12.13
2023-04-15T16:28:42.017Z,12.29
2023-04-15T16:31:44.768Z,12.24
2023-04-15T16:34:47.559Z,12.21
2023-04-15T16:37:50.493Z,12.10
2023-04-15T16:40:54.431Z,12.22
2023-04-15T16:43:58.625Z,12.21
2023-04-15T16:47:03.128Z,12.55
2023-04-15T16:50:06.453Z,12.37
2023-04-15T16:53:09.136Z,12.42
2023-04-15T16:56:11.819Z,12.65
2023-04-15T16:59:14.456Z,12.59
2023-04-15T17:02:18.319Z,12.18
2023-04-15T17:05:21.184Z,11.97
2023-04-15T17:08:23.948Z,12.06
2023-04-15T17:11:28.178Z,12.07
2023-04-15T17:14:32.252Z,12.08
2023-04-15T17:17:34.862Z,11.90
2023-04-15T17:20:39.521Z,11.69
2023-04-15T17:23:43.267Z,11.57
2023-04-15T17:26:47.220Z,11.60
2023-04-15T17:29:49.835Z,11.75
2023-04-15T17:32:53.193Z,11.65
2023-04-15T17:35:57.907Z,11.55
2023-04-15T17:39:00.613Z,11.59
2023-04-15T17:42:03.313Z,11.56
2023-04-15T17:45:06.541Z,11.55
2023-04-15T17:48:09.299Z,11.45
2023-04-15T17:51:12.946Z,11.45
2023-04-15T17:54:16.067Z,11.44
2023-04-15T17:57:18.601Z,11.34
2023-04-15T18:00:22.108Z,11.45
2023-04-15T18:03:26.309Z,11.53
2023-04-15T18:06:29.239Z,11.56
2023-04-15T18:09:32.646Z,11.65
2023-04-15T18:12:35.426Z,11.67
2023-04-15T18:15:38.219Z,11.58
2023-04-15T18:18:40.922Z,11.31
2023-04-15T18:21:43.883Z,11.50
2023-04-15T18:24:46.519Z,11.56
2023-04-15T18:27:49.578Z,11.56
2023-04-15T18:30:52.124Z,11.57
2023-04-15T18:33:54.871Z,11.46
2023-04-15T18:36:58.761Z,11.44
2023-04-15T18:40:02.740Z,11.38
2023-04-15T18:43:06.370Z,11.36
2023-04-15T18:46:11.903Z,11.39
2023-04-15T18:49:15.926Z,11.33
2023-04-15T18:52:18.689Z,11.34
2023-04-15T18:55:21.352Z,11.26
2023-04-15T18:58:24.114Z,11.14
2023-04-15T19:01:27.708Z,11.12
2023-04-15T19:04:31.357Z,10.97
2023-04-15T19:07:34.976Z,10.95
2023-04-15T19:10:38.132Z,11.03
2023-04-15T19:13:40.808Z,11.05
2023-04-15T19:16:45.176Z,11.09
2023-04-15T19:19:47.923Z,11.09
2023-04-15T19:22:50.833Z,11.05
2023-04-15T19:25:53.616Z,10.99
2023-04-15T19:28:58.969Z,10.94
2023-04-15T19:32:02.165Z,10.87
2023-04-15T19:35:05.509Z,10.74
2023-04-15T19:38:08.718Z,10.57
2023-04-15T19:41:12.253Z,10.67
2023-04-15T19:44:15.139Z,10.72
2023-04-15T19:47:19.390Z,10.75
2023-04-15T19:50:26.285Z,10.70
2023-04-15T19:53:29.400Z,10.57
2023-04-15T19:56:34.405Z,10.59
2023-04-15T19:59:38.249Z,10.68
2023-04-15T20:02:41.982Z,10.62
2023-04-15T20:05:44.881Z,10.65
2023-04-15T20:08:47.448Z,10.67
2023-04-15T20:12:46.851Z,10.58
2023-04-15T20:15:13.474Z,10.63
2023-04-15T20:18:16.917Z,10.51
2023-04-15T20:21:19.498Z,10.39
2023-04-15T20:24:24.267Z,10.33
2023-04-15T20:27:27.786Z,10.41
2023-04-15T20:30:30.460Z,10.34
2023-04-15T20:33:33.175Z,10.34
2023-04-15T20:36:35.728Z,10.26
2023-04-15T20:39:39.849Z,10.37
2023-04-15T20:42:43.767Z,10.34
2023-04-15T20:45:47.386Z,10.44
2023-04-15T20:48:50.476Z,10.04
2023-04-15T20:51:53.111Z,9.94
2023-04-15T20:54:55.895Z,10.08
2023-04-15T20:57:59.141Z,10.11
2023-04-15T21:01:02.191Z,10.11
2023-04-15T21:04:05.023Z,10.09
2023-04-15T21:07:07.811Z,10.15
2023-04-15T21:10:10.715Z,10.18
2023-04-15T21:13:17.688Z,10.03
2023-04-15T21:16:22.317Z,10.02
2023-04-15T21:19:24.994Z,10.10
2023-04-15T21:22:27.822Z,9.95
2023-04-15T21:25:30.348Z,9.89
2023-04-15T21:28:33.303Z,9.74
2023-04-15T21:31:36.895Z,9.75
2023-04-15T21:34:39.495Z,9.80
2023-04-15T21:37:42.161Z,9.76
2023-04-15T21:40:44.721Z,9.80
2023-04-15T21:43:47.801Z,9.71
2023-04-15T21:46:51.188Z,9.45
2023-04-15T21:49:54.914Z,9.51
2023-04-15T21:52:57.624Z,9.68
2023-04-15T21:56:00.357Z,9.61
2023-04-15T21:59:03.981Z,9.54
2023-04-15T22:02:07.478Z,9.44
2023-04-15T22:05:10.096Z,9.63
2023-04-15T22:08:12.723Z,9.62
2023-04-15T22:11:23.062Z,9.68
2023-04-15T22:14:26.911Z,9.71
2023-04-15T22:17:29.675Z,9.79
2023-04-15T22:20:32.313Z,9.75
2023-04-15T22:23:35.439Z,9.75
2023-04-15T22:26:39.089Z,9.54
2023-04-15T22:29:41.751Z,9.65
2023-04-15T22:32:44.303Z,9.75
2023-04-15T22:35:47.436Z,9.66
2023-04-15T22:38:50.306Z,9.58
2023-04-15T22:41:53.218Z,9.58
2023-04-15T22:44:56.462Z,9.41
2023-04-15T22:47:59.132Z,9.54
2023-04-15T22:51:05.661Z,9.51
2023-04-15T22:54:09.496Z,9.35
2023-04-15T22:57:12.997Z,9.32
2023-04-15T23:00:15.630Z,9.37
2023-04-15T23:03:19.085Z,9.32
2023-04-15T23:06:22.041Z,9.41
2023-04-15T23:09:24.765Z,9.53
2023-04-15T23:12:28.079Z,9.48
2023-04-15T23:15:30.924Z,9.47
2023-04-15T23:18:34.275Z,9.53
2023-04-15T23:21:36.891Z,9.55
2023-04-15T23:24:39.679Z,9.60
2023-04-15T23:27:42.968Z,9.42
2023-04-15T23:30:45.570Z,9.42
2023-04-15T23:33:48.550Z,9.45
2023-04-15T23:36:51.991Z,9.44
2023-04-15T23:39:55.910Z,9.54
2023-04-15T23:42:58.493Z,9.49
2023-04-15T23:46:02.109Z,9.44
2023-04-15T23:49:04.908Z,9.49
2023-04-15T23:52:08.062Z,9.46
2023-04-15T23:55:10.628Z,9.34
2023-04-15T23:58:14.026Z,9.33
